Terminal Aerodrome Forecast
Issued by NWS Pendleton, OR

Home | Current Version | Previous Version | Text Only | Print | Product List | Glossary On
Versions: 1 2 3 4 5 6 7 8 9 10 11 12 13
038
FTUS46 KPDT 230520
TAFPDT
TAF
KPDT 230520Z 2306/2406 VRB05KT P6SM FEW250
     FM231900 28007KT P6SM FEW200
     FM240300 29010G20KT P6SM SCT100 BKN200=

USA.gov is the U.S. government's official web portal to all federal, state and local government web resources and services.